Gardner, Colorado
Current Conditions -  °F | °C
As of 11:42 PM on Thursday 27 Nov 2014 (Local Time) from KVTP Reporting Station
Clear Clear  
Wind Chill: 26°   Ceiling: Unl
Heat Index: 34°   Visibility: 10mi
Dew Point: 16°   Wind: 9mph
Humidity: 48%   Direction: 200°SSW
Pressure: 30.36"   Gusts: 17mph
Location:  37.78°N, 105.17°W
Report Text: KVTP 280642Z AUTO 20008G15KT 160V250 10SM CLR 01/M09 A3036 RMK AO2
Loading
Personal Weather Stations






























Interactive Weather Map New forecast layout! Learn more

10-Day Weather Forecast

Advertisements
Track Severe Weather on mobile